Parkland, Florida
Current Conditions -  °F | °C
As of 4:53 PM on Saturday 25 Oct 2014 (Local Time) from KPMP Reporting Station
Clear Clear  
Wind Chill: 81°   Ceiling: Unl
Heat Index: 82°   Visibility: 10mi
Dew Point: 62°   Wind: 17mph
Humidity: 52%   Direction: 30°NNE
Pressure: 29.89"   Gusts: 22mph
Location:  26.2997°N, 80.1785°W
Report Text: KPMP 252053Z 03015G19KT 10SM CLR 27/17 A2989 RMK AO2 SLP122 T02720167 55004
Loading
Personal Weather Stations






























Interactive Weather Map
Tropical Storm Tracking
New forecast layout! Learn more

10-Day Weather Forecast

Advertisements
Track Severe Weather on mobile